Bradley, West Virginia
Current Conditions -  °F | °C
As of 4:51 AM on Wednesday 22 Oct 2014 (Local Time) from KBKW Reporting Station
Overcast Overcast  
Wind Chill: 34°   Ceiling: 300
Heat Index: 41°   Visibility: 7mi
Dew Point: 39°   Wind: 12mph
Humidity: 93%   Direction: 320°NW
Pressure: 30.05"   Gusts: NA
Location:  37.86°N, 81.2°W
Report Text: KBKW 220851Z AUTO 32010KT 7SM OVC003 05/04 A3005 RMK AO2 RAE18 SLP184 P0000 60001 T00500039 53003 TSNO
Loading
Personal Weather Stations






























Interactive Weather Map
Tropical Storm Tracking
New forecast layout! Learn more

10-Day Weather Forecast

Advertisements
Track Severe Weather on mobile